Time;durP1;ratioP1;P1;durP2;ratioP2;P2;SDS_P1;SDS_P2;PMS_P1;PMS_P2;Temp;Humidity;BMP_temperature;BMP_pressure;BME280_temperature;BME280_humidity;BME280_pressure;Samples;Min_cycle;Max_cycle;Signal;HPM_P1;HPM_P2
2021/09/04 00:00:55;;;;;;;8.20;4.03;;;;;;;15.27;68.54;101461.53;1684147;85;21082;-84
2021/09/04 00:03:21;;;;;;;7.67;3.90;;;;;;;15.25;68.76;101464.70;1683792;85;21149;-84
2021/09/04 00:05:50;;;;;;;7.25;3.70;;;;;;;15.24;68.86;101462.22;1684031;85;20869;-83
2021/09/04 00:08:16;;;;;;;10.90;4.58;;;;;;;15.23;69.00;101463.99;1683886;85;20995;-84
2021/09/04 00:10:45;;;;;;;6.15;3.90;;;;;;;15.25;69.09;101462.09;1684263;84;21032;-82
2021/09/04 00:13:12;;;;;;;6.70;3.60;;;;;;;15.24;69.09;101465.67;1683919;85;20992;-82
2021/09/04 00:15:40;;;;;;;8.28;4.08;;;;;;;15.23;69.29;101462.69;1683979;85;21478;-82
2021/09/04 00:18:13;;;;;;;8.10;3.98;;;;;;;15.21;69.51;101471.13;1683788;85;20988;-83
2021/09/04 00:20:40;;;;;;;5.25;3.77;;;;;;;15.18;69.74;101471.81;1684248;85;21074;-83
2021/09/04 00:23:07;;;;;;;7.97;4.00;;;;;;;15.16;69.98;101471.08;1665697;85;21058;-83
2021/09/04 00:25:34;;;;;;;7.67;4.20;;;;;;;15.13;70.21;101466.91;1683866;85;20976;-83
2021/09/04 00:28:02;;;;;;;6.47;3.58;;;;;;;15.13;70.35;101473.44;1683919;85;21169;-82
2021/09/04 00:30:30;;;;;;;10.85;4.30;;;;;;;15.14;70.62;101467.75;1683872;84;20913;-82
2021/09/04 00:32:57;;;;;;;13.90;4.78;;;;;;;15.13;70.73;101474.75;1684048;85;21011;-83
2021/09/04 00:35:24;;;;;;;9.13;4.12;;;;;;;15.12;70.90;101467.87;1684269;85;21467;-83
2021/09/04 00:37:50;;;;;;;11.08;4.60;;;;;;;15.12;71.18;101469.18;1684195;85;21071;-83
2021/09/04 00:40:17;;;;;;;8.60;4.05;;;;;;;15.12;71.19;101470.48;1683966;84;21168;-83
2021/09/04 00:42:44;;;;;;;13.53;4.10;;;;;;;15.11;71.35;101468.81;1683808;85;21463;-83
2021/09/04 00:45:11;;;;;;;9.48;4.03;;;;;;;15.10;71.45;101465.83;1683967;85;20952;-82
2021/09/04 00:48:00;;;;;;;9.93;4.08;;;;;;;15.10;71.65;101459.29;1683848;85;21537;-82
2021/09/04 00:50:29;;;;;;;15.63;4.33;;;;;;;15.08;71.75;101462.50;1683918;83;21015;-84
2021/09/04 00:52:57;;;;;;;9.83;3.90;;;;;;;15.07;71.95;101460.81;1684093;84;21177;-84
2021/09/04 00:55:24;;;;;;;6.35;3.90;;;;;;;15.07;72.24;101463.90;1683986;85;21002;-83
2021/09/04 00:57:52;;;;;;;13.88;4.17;;;;;;;15.05;72.31;101464.02;1684290;84;20904;-83
2021/09/04 01:00:20;;;;;;;6.47;4.72;;;;;;;15.03;72.51;101463.28;1684070;85;21494;-84
2021/09/04 01:02:48;;;;;;;10.48;4.20;;;;;;;15.01;72.69;101463.04;1684223;85;21558;-83
2021/09/04 01:05:15;;;;;;;12.23;3.85;;;;;;;14.98;73.10;101470.63;1683943;85;21835;-84
2021/09/04 01:07:42;;;;;;;11.20;4.12;;;;;;;14.97;73.74;101464.19;1684095;85;21038;-84
2021/09/04 01:10:10;;;;;;;13.28;4.30;;;;;;;14.97;73.89;101461.58;1684050;84;21039;-83
2021/09/04 01:12:38;;;;;;;11.00;4.35;;;;;;;14.96;73.79;101457.31;1684087;85;20967;-83
2021/09/04 01:15:08;;;;;;;7.92;4.00;;;;;;;14.94;74.00;101458.72;1684088;84;21027;-83
2021/09/04 01:17:35;;;;;;;5.67;4.37;;;;;;;14.93;74.38;101453.62;1684069;84;21553;-83
2021/09/04 01:20:05;;;;;;;5.75;3.65;;;;;;;14.89;74.60;101456.08;1684183;84;21541;-83
2021/09/04 01:22:32;;;;;;;11.45;4.03;;;;;;;14.86;74.91;101454.99;1683807;85;21023;-82
2021/09/04 01:25:03;;;;;;;9.50;4.17;;;;;;;14.86;75.26;101449.30;1683917;85;21071;-83
2021/09/04 01:27:33;;;;;;;9.10;4.67;;;;;;;14.87;75.49;101443.11;1683744;85;21631;-81
2021/09/04 01:30:01;;;;;;;7.58;5.28;;;;;;;14.92;75.57;101450.63;1666218;85;21164;-82
2021/09/04 01:32:27;;;;;;;8.75;5.47;;;;;;;14.95;75.62;101440.80;1683835;85;21574;-84
2021/09/04 01:35:07;;;;;;;9.05;4.75;;;;;;;14.99;75.58;101440.11;1683742;84;21617;-85
2021/09/04 01:37:34;;;;;;;7.15;4.72;;;;;;;15.02;75.49;101442.03;1683003;85;21028;-84
2021/09/04 01:40:05;;;;;;;7.62;4.10;;;;;;;15.05;75.44;101438.35;1683915;84;21008;-81
2021/09/04 01:42:32;;;;;;;10.85;4.58;;;;;;;15.09;75.39;101439.31;1683737;84;21166;-81
2021/09/04 01:44:59;;;;;;;8.83;4.87;;;;;;;15.14;75.33;101445.52;1683831;84;21019;-84
2021/09/04 01:47:26;;;;;;;9.78;5.42;;;;;;;15.18;75.21;101445.20;1683716;85;21088;-82
2021/09/04 01:49:56;;;;;;;7.42;6.28;;;;;;;15.19;75.29;101446.85;1683865;84;21054;-83
2021/09/04 01:52:23;;;;;;;7.25;4.65;;;;;;;15.22;75.39;101446.63;1666163;85;20976;-86
2021/09/04 01:54:51;;;;;;;8.50;4.62;;;;;;;15.24;75.54;101443.91;1684298;84;21156;-89
2021/09/04 01:57:18;;;;;;;9.73;4.05;;;;;;;15.26;75.64;101442.02;1683808;85;21727;-87
2021/09/04 01:59:46;;;;;;;4.83;2.90;;;;;;;15.26;75.68;101438.93;1684040;85;21625;-87
2021/09/04 02:02:14;;;;;;;8.85;4.00;;;;;;;15.26;75.75;101435.47;1683797;84;21024;-88
2021/09/04 02:04:41;;;;;;;8.13;3.22;;;;;;;15.23;75.89;101427.86;1683919;84;21046;-87
2021/09/04 02:07:09;;;;;;;5.80;3.50;;;;;;;15.21;75.96;101429.30;1683921;85;21172;-85
2021/09/04 02:09:36;;;;;;;8.03;3.72;;;;;;;15.18;75.95;101420.37;1684185;84;21099;-80
2021/09/04 02:12:03;;;;;;;6.62;3.90;;;;;;;15.13;75.45;101424.23;1684229;85;21491;-85
2021/09/04 02:14:29;;;;;;;7.60;3.67;;;;;;;15.00;74.94;101424.30;1683758;85;21071;-86
2021/09/04 02:16:57;;;;;;;8.38;3.45;;;;;;;14.88;74.88;101424.34;1684083;84;21522;-85
2021/09/04 02:19:26;;;;;;;13.98;4.70;;;;;;;14.79;74.94;101425.84;1683954;84;21640;-84
2021/09/04 02:21:54;;;;;;;11.28;3.98;;;;;;;14.75;75.33;101430.92;1684161;85;21020;-86
2021/09/04 02:24:21;;;;;;;8.80;3.67;;;;;;;14.70;75.66;101431.27;1683747;85;21567;-86
2021/09/04 02:26:49;;;;;;;8.25;4.12;;;;;;;14.68;75.56;101425.77;1683883;84;21024;-85
2021/09/04 02:29:17;;;;;;;7.22;3.75;;;;;;;14.67;75.67;101429.34;1683933;84;21007;-85
2021/09/04 02:31:44;;;;;;;10.88;3.47;;;;;;;14.67;75.85;101426.27;1684025;85;21198;-84
2021/09/04 02:34:12;;;;;;;8.40;3.80;;;;;;;14.69;76.03;101423.52;1683938;84;20885;-84
2021/09/04 02:36:41;;;;;;;7.65;3.62;;;;;;;14.70;76.13;101414.75;1683987;84;21526;-85
2021/09/04 02:39:09;;;;;;;8.98;4.28;;;;;;;14.72;76.22;101412.39;1683926;85;21535;-85
2021/09/04 02:41:36;;;;;;;10.58;4.00;;;;;;;14.72;76.22;101407.63;1683976;84;21588;-84
2021/09/04 02:44:03;;;;;;;12.58;4.03;;;;;;;14.69;76.12;101416.53;1684056;84;21803;-85
2021/09/04 02:46:32;;;;;;;6.47;3.90;;;;;;;14.66;76.18;101417.21;1684208;84;20999;-85
2021/09/04 02:48:59;;;;;;;6.28;3.85;;;;;;;14.64;76.44;101410.80;1683745;85;21527;-85
2021/09/04 02:51:26;;;;;;;6.75;3.72;;;;;;;14.66;76.68;101418.52;1684252;84;21528;-86
2021/09/04 02:53:54;;;;;;;9.75;3.90;;;;;;;14.67;76.88;101419.73;1684081;85;21528;-84
2021/09/04 02:56:21;;;;;;;7.00;4.40;;;;;;;14.68;76.98;101429.22;1683663;84;21170;-88
2021/09/04 02:58:49;;;;;;;6.87;3.85;;;;;;;14.69;77.21;101431.36;1684020;85;20948;-87
2021/09/04 03:01:17;;;;;;;4.95;4.10;;;;;;;14.66;77.27;101432.42;1683669;85;20996;-88
2021/09/04 03:03:46;;;;;;;10.25;4.15;;;;;;;14.64;77.34;101430.40;1683956;84;21091;-86
2021/09/04 03:06:15;;;;;;;10.32;4.28;;;;;;;14.61;77.54;101437.15;1683862;85;21447;-82
2021/09/04 03:08:43;;;;;;;7.22;3.75;;;;;;;14.60;77.67;101435.94;1684215;85;21893;-85
2021/09/04 03:11:13;;;;;;;8.68;4.25;;;;;;;14.62;77.74;101442.71;1683910;84;20925;-90
2021/09/04 03:13:41;;;;;;;8.10;4.08;;;;;;;14.63;77.67;101443.55;1683848;85;21016;-87
2021/09/04 03:16:09;;;;;;;8.85;4.45;;;;;;;14.60;77.60;101437.23;1684153;84;21550;-85
2021/09/04 03:18:37;;;;;;;6.60;4.70;;;;;;;14.55;77.67;101435.44;1684150;85;20955;-85
2021/09/04 03:21:06;;;;;;;5.85;3.95;;;;;;;14.51;77.91;101426.98;1684162;84;21189;-85
2021/09/04 03:23:32;;;;;;;7.28;3.92;;;;;;;14.49;78.14;101428.84;1683994;85;22097;-86
2021/09/04 03:26:00;;;;;;;8.30;3.52;;;;;;;14.48;78.20;101428.50;1684163;84;21450;-87
2021/09/04 03:28:28;;;;;;;7.97;3.95;;;;;;;14.50;78.24;101431.83;1683872;85;21070;-86
2021/09/04 03:30:56;;;;;;;8.73;3.98;;;;;;;14.50;78.14;101429.22;1684169;84;21617;-84
2021/09/04 03:33:23;;;;;;;11.22;4.00;;;;;;;14.47;78.00;101433.34;1684183;85;21854;-84
2021/09/04 03:35:51;;;;;;;7.20;4.58;;;;;;;14.45;78.07;101430.48;1684206;84;21585;-83
2021/09/04 03:38:19;;;;;;;6.47;3.87;;;;;;;14.40;78.25;101430.80;1684236;84;20959;-84
2021/09/04 03:40:46;;;;;;;12.73;3.98;;;;;;;14.38;78.52;101427.93;1684212;85;21050;-84
2021/09/04 03:43:13;;;;;;;8.10;4.00;;;;;;;14.37;78.74;101434.92;1684002;84;21028;-83
2021/09/04 03:45:42;;;;;;;7.97;4.10;;;;;;;14.40;78.84;101438.62;1684114;85;21177;-86
2021/09/04 03:48:10;;;;;;;8.38;4.00;;;;;;;14.43;78.77;101444.94;1666180;85;21525;-85
2021/09/04 03:50:39;;;;;;;8.75;4.08;;;;;;;14.47;78.80;101443.80;1683886;84;21442;-85
2021/09/04 03:53:08;;;;;;;19.35;5.47;;;;;;;14.50;78.76;101446.66;1683916;84;20991;-85
2021/09/04 03:55:34;;;;;;;11.22;5.03;;;;;;;14.52;78.70;101448.71;1683863;84;21454;-86
2021/09/04 03:58:02;;;;;;;9.38;4.45;;;;;;;14.52;78.51;101449.52;1684228;84;21716;-85
2021/09/04 04:00:29;;;;;;;10.30;4.22;;;;;;;14.48;78.29;101450.70;1684205;85;21756;-87
2021/09/04 04:02:55;;;;;;;14.15;4.90;;;;;;;14.44;78.28;101448.39;1684262;85;21130;-87
2021/09/04 04:05:23;;;;;;;6.95;4.45;;;;;;;14.40;78.37;101444.31;1686200;85;20984;-84
2021/09/04 04:07:50;;;;;;;10.15;4.65;;;;;;;14.39;78.47;101442.67;1687206;85;20992;-85
2021/09/04 04:10:17;;;;;;;15.65;4.58;;;;;;;14.37;78.60;101441.92;1686852;84;21712;-86
2021/09/04 04:12:47;;;;;;;11.83;4.30;;;;;;;14.36;78.62;101446.30;1684583;84;21566;-87
2021/09/04 04:15:13;;;;;;;8.98;4.53;;;;;;;14.37;78.79;101445.84;1684094;84;21000;-85
2021/09/04 04:17:41;;;;;;;16.42;4.70;;;;;;;14.41;79.00;101444.69;1683950;84;21584;-85
2021/09/04 04:20:10;;;;;;;7.37;4.40;;;;;;;14.44;78.90;101441.86;1684018;84;21513;-84
2021/09/04 04:22:37;;;;;;;9.15;4.67;;;;;;;14.46;78.85;101442.11;1683900;84;21152;-83
2021/09/04 04:25:06;;;;;;;10.05;4.92;;;;;;;14.49;79.02;101443.67;1683839;84;21624;-84
2021/09/04 04:27:33;;;;;;;14.68;5.15;;;;;;;14.53;79.15;101438.14;1678492;84;20989;-87
2021/09/04 04:30:02;;;;;;;13.10;5.28;;;;;;;14.59;79.30;101436.86;1677634;85;21109;-84
2021/09/04 04:32:32;;;;;;;18.37;4.80;;;;;;;14.67;79.38;101439.79;1677844;85;21006;-84
2021/09/04 04:34:59;;;;;;;15.78;4.78;;;;;;;14.73;79.34;101440.66;1677844;85;21818;-85
2021/09/04 04:37:26;;;;;;;9.08;4.90;;;;;;;14.78;79.42;101434.16;1677934;85;21085;-90
2021/09/04 04:39:53;;;;;;;7.67;5.08;;;;;;;14.85;79.42;101435.86;1678098;85;21519;-87
2021/09/04 04:42:22;;;;;;;16.77;5.65;;;;;;;14.90;79.50;101432.43;1677828;85;21533;-85
2021/09/04 04:44:51;;;;;;;7.80;4.55;;;;;;;14.95;79.53;101430.81;1678069;84;21487;-89
2021/09/04 04:47:18;;;;;;;7.97;4.45;;;;;;;15.00;79.65;101431.30;1678755;84;21275;-87
2021/09/04 04:49:44;;;;;;;9.20;4.90;;;;;;;15.04;79.72;101425.75;1678126;85;20947;-84
2021/09/04 04:52:12;;;;;;;9.23;4.83;;;;;;;15.12;79.64;101422.59;1678590;85;20939;-84
2021/09/04 04:54:39;;;;;;;9.45;4.83;;;;;;;15.18;79.54;101424.29;1677995;85;20993;-84
2021/09/04 04:57:07;;;;;;;7.28;4.85;;;;;;;15.25;79.42;101425.98;1678127;85;21531;-84
2021/09/04 04:59:34;;;;;;;8.40;4.58;;;;;;;15.32;79.31;101428.02;1678432;84;21809;-88
2021/09/04 05:02:01;;;;;;;9.30;4.70;;;;;;;15.36;79.23;101429.94;1678308;84;20919;-87
2021/09/04 05:04:28;;;;;;;8.15;4.85;;;;;;;15.42;79.11;101426.02;1678135;85;20996;-86
2021/09/04 05:06:56;;;;;;;13.00;5.30;;;;;;;15.47;78.97;101428.69;1678391;85;21014;-87
2021/09/04 05:09:25;;;;;;;11.63;5.20;;;;;;;15.53;78.69;101423.49;1678656;85;21414;-86
2021/09/04 05:11:52;;;;;;;11.88;4.85;;;;;;;15.59;78.29;101423.87;1655652;85;21807;-89
2021/09/04 05:14:22;;;;;;;10.70;5.03;;;;;;;15.64;77.58;101423.51;1678810;85;21511;-78
2021/09/04 05:16:49;;;;;;;7.78;4.95;;;;;;;15.69;77.18;101430.55;1679560;85;20894;-88
2021/09/04 05:19:17;;;;;;;7.67;4.95;;;;;;;15.73;76.95;101424.96;1678393;85;20934;-81
2021/09/04 05:21:45;;;;;;;10.80;5.08;;;;;;;15.78;76.62;101423.31;1680131;83;21044;-84
2021/09/04 05:24:12;;;;;;;8.90;5.37;;;;;;;15.82;76.06;101419.06;1678614;85;21145;-88
2021/09/04 05:26:39;;;;;;;14.05;5.85;;;;;;;15.87;75.54;101424.77;1678443;84;21025;-85
2021/09/04 05:29:06;;;;;;;19.85;8.15;;;;;;;15.95;75.31;101424.19;1678481;85;21559;-80
2021/09/04 05:31:34;;;;;;;13.85;8.73;;;;;;;16.04;74.88;101424.79;1678269;85;20958;-86
2021/09/04 05:34:01;;;;;;;17.35;8.33;;;;;;;16.12;74.29;101423.72;1678574;85;21544;-80
2021/09/04 05:36:27;;;;;;;12.47;8.00;;;;;;;16.19;74.02;101416.22;1679160;85;21146;-85
2021/09/04 05:38:55;;;;;;;12.03;6.72;;;;;;;16.27;73.64;101413.86;1678548;85;21497;-86
2021/09/04 05:41:22;;;;;;;12.58;5.95;;;;;;;16.37;73.27;101410.84;1678381;85;20914;-86
2021/09/04 05:43:49;;;;;;;9.35;5.40;;;;;;;16.45;72.55;101407.17;1679120;85;20974;-85
2021/09/04 05:46:17;;;;;;;11.43;5.25;;;;;;;16.53;72.18;101410.00;1679144;85;21060;-87
2021/09/04 05:48:44;;;;;;;11.73;5.10;;;;;;;16.64;71.85;101411.34;1679694;85;22052;-82
2021/09/04 05:51:10;;;;;;;9.80;5.35;;;;;;;16.73;71.28;101400.13;1678732;84;20895;-83
2021/09/04 05:53:39;;;;;;;17.62;5.15;;;;;;;16.84;70.25;101406.66;1678484;85;20989;-85
2021/09/04 05:56:06;;;;;;;7.87;5.00;;;;;;;16.93;70.21;101411.16;1678253;85;21308;-84
2021/09/04 05:58:32;;;;;;;8.43;5.00;;;;;;;17.02;70.11;101405.64;1677982;85;21071;-82
2021/09/04 06:01:00;;;;;;;8.55;4.72;;;;;;;17.10;68.99;101407.66;1678291;85;21174;-89
2021/09/04 06:03:28;;;;;;;10.48;5.65;;;;;;;17.16;68.98;101408.46;1654680;85;21548;-83
2021/09/04 06:05:57;;;;;;;11.88;5.42;;;;;;;17.22;68.73;101410.11;1678261;85;21327;-81
2021/09/04 06:08:26;;;;;;;11.83;5.05;;;;;;;17.31;68.39;101413.76;1678038;85;20919;-84
2021/09/04 06:10:53;;;;;;;9.40;4.72;;;;;;;17.40;66.79;101411.20;1677882;85;20999;-85
2021/09/04 06:13:19;;;;;;;9.60;5.20;;;;;;;17.51;66.49;101413.42;1678151;85;21152;-83
2021/09/04 06:15:46;;;;;;;8.63;4.87;;;;;;;17.56;65.96;101413.42;1678199;84;21025;-81
2021/09/04 06:18:15;;;;;;;7.92;4.95;;;;;;;17.67;65.55;101418.62;1678115;84;21409;-81
2021/09/04 06:20:42;;;;;;;7.90;4.75;;;;;;;17.76;65.20;101416.53;1678157;84;21013;-83
2021/09/04 06:23:10;;;;;;;6.80;4.30;;;;;;;17.83;65.21;101424.73;1678041;84;21481;-85
2021/09/04 06:25:38;;;;;;;9.70;4.92;;;;;;;17.87;64.77;101423.48;1677942;85;21185;-86
2021/09/04 06:28:05;;;;;;;8.05;4.65;;;;;;;18.01;64.15;101430.20;1682866;84;21697;-90
2021/09/04 06:30:32;;;;;;;9.23;4.92;;;;;;;18.09;63.56;101431.23;1684181;85;21055;-84
2021/09/04 06:32:59;;;;;;;6.28;4.58;;;;;;;18.17;63.65;101426.14;1684319;85;21506;-87
2021/09/04 06:35:26;;;;;;;7.35;5.10;;;;;;;18.24;63.44;101427.77;1684657;84;21057;-80
2021/09/04 06:37:53;;;;;;;5.60;4.50;;;;;;;18.31;61.85;101428.43;1684003;85;21188;-82
2021/09/04 06:40:20;;;;;;;8.18;4.75;;;;;;;18.38;61.95;101426.08;1684096;85;21609;-83
2021/09/04 06:42:46;;;;;;;7.50;4.55;;;;;;;18.47;61.28;101431.88;1684200;85;21115;-87
2021/09/04 06:45:14;;;;;;;8.90;5.20;;;;;;;18.55;60.89;101429.91;1684322;84;20965;-85
2021/09/04 06:47:41;;;;;;;11.93;7.80;;;;;;;18.60;62.04;101430.36;1684153;85;21000;-83
2021/09/04 06:50:10;;;;;;;13.15;7.45;;;;;;;18.62;62.62;101430.56;1683979;85;21177;-90
2021/09/04 06:52:38;;;;;;;20.27;10.25;;;;;;;18.67;62.62;101427.03;1684318;84;21517;-81
2021/09/04 06:55:06;;;;;;;9.58;5.90;;;;;;;18.77;62.82;101433.16;1684003;85;21099;-82
2021/09/04 06:57:32;;;;;;;10.10;4.75;;;;;;;18.84;61.44;101431.66;1684084;85;21027;-82
2021/09/04 06:59:59;;;;;;;9.30;5.47;;;;;;;18.89;60.04;101429.94;1684360;85;21514;-85
2021/09/04 07:02:26;;;;;;;6.53;4.72;;;;;;;18.94;60.23;101432.98;1684050;84;21228;-83
2021/09/04 07:04:53;;;;;;;9.73;5.05;;;;;;;18.99;60.45;101432.08;1684115;85;20935;-82
2021/09/04 07:07:20;;;;;;;7.90;5.12;;;;;;;19.08;59.58;101432.56;1684046;85;21023;-84
2021/09/04 07:09:46;;;;;;;8.08;4.70;;;;;;;19.19;59.11;101431.62;1684058;85;21564;-82
2021/09/04 07:12:13;;;;;;;9.43;4.80;;;;;;;19.28;58.06;101431.62;1684231;85;20944;-82
2021/09/04 07:14:39;;;;;;;8.05;4.60;;;;;;;19.36;57.99;101430.94;1683936;84;21162;-82
2021/09/04 07:17:06;;;;;;;30.08;16.65;;;;;;;19.41;58.27;101432.69;1684218;85;20991;-83
2021/09/04 07:19:33;;;;;;;16.75;9.33;;;;;;;19.52;59.33;101438.66;1684476;84;21007;-86
2021/09/04 07:21:59;;;;;;;11.10;5.92;;;;;;;19.60;59.61;101435.78;1684306;85;21035;-84
2021/09/04 07:24:26;;;;;;;8.95;4.87;;;;;;;19.66;59.44;101436.53;1684007;85;21054;-82
2021/09/04 07:26:52;;;;;;;9.70;4.78;;;;;;;19.72;58.09;101437.31;1682908;84;21748;-83
2021/09/04 07:29:19;;;;;;;16.32;4.40;;;;;;;19.78;57.76;101438.91;1677445;85;20970;-81
2021/09/04 07:31:46;;;;;;;27.80;10.80;;;;;;;19.82;57.53;101432.35;1677829;85;33188;-83
2021/09/04 07:34:13;;;;;;;31.05;12.43;;;;;;;19.88;58.62;101442.32;1677860;85;21500;-83
2021/09/04 07:36:40;;;;;;;22.27;9.35;;;;;;;19.97;58.55;101449.36;1677941;85;20988;-86
2021/09/04 07:39:07;;;;;;;9.13;5.85;;;;;;;20.05;58.51;101443.39;1677939;85;21207;-86
2021/09/04 07:41:33;;;;;;;13.32;5.87;;;;;;;20.10;58.66;101448.25;1677913;85;20930;-83
2021/09/04 07:44:01;;;;;;;22.35;9.28;;;;;;;20.14;58.42;101446.48;1678349;85;21001;-82
2021/09/04 07:46:27;;;;;;;38.92;18.37;;;;;;;20.22;57.77;101449.24;1678910;85;21528;-83
2021/09/04 07:48:54;;;;;;;19.20;9.53;;;;;;;20.30;57.68;101452.00;1678000;85;21041;-83
2021/09/04 07:51:21;;;;;;;12.45;7.50;;;;;;;20.39;57.22;101446.38;1678310;85;21528;-81
2021/09/04 07:53:47;;;;;;;23.12;11.12;;;;;;;20.48;54.92;101448.97;1677829;85;20996;-87
2021/09/04 07:56:16;;;;;;;16.95;9.48;;;;;;;20.51;54.78;101454.42;1677726;85;20985;-84
2021/09/04 07:58:42;;;;;;;15.55;5.55;;;;;;;20.56;55.20;101451.69;1677769;85;21073;-83
2021/09/04 08:01:09;;;;;;;9.98;5.33;;;;;;;20.64;55.59;101445.69;1677776;85;21028;-80
2021/09/04 08:03:36;;;;;;;7.10;4.67;;;;;;;20.69;55.91;101447.38;1678201;84;21918;-83
2021/09/04 08:06:02;;;;;;;10.75;5.95;;;;;;;20.76;55.82;101452.42;1677905;85;20911;-83
2021/09/04 08:08:30;;;;;;;14.40;9.33;;;;;;;20.75;55.50;101449.91;1678046;85;20938;-85
2021/09/04 08:10:58;;;;;;;14.38;6.72;;;;;;;20.75;54.88;101444.64;1677924;84;21010;-83
2021/09/04 08:13:26;;;;;;;5.47;4.37;;;;;;;20.81;54.03;101450.64;1677949;85;20993;-84
2021/09/04 08:15:53;;;;;;;8.45;4.37;;;;;;;20.87;53.67;101446.09;1678102;85;21031;-82
2021/09/04 08:18:21;;;;;;;6.45;4.22;;;;;;;20.90;53.46;101437.38;1678177;84;20990;-83
2021/09/04 08:20:48;;;;;;;37.35;8.58;;;;;;;20.99;52.97;101437.00;1677962;85;21025;-82
2021/09/04 08:23:15;;;;;;;14.43;7.33;;;;;;;21.00;53.33;101434.20;1677689;84;20898;-84
2021/09/04 08:25:42;;;;;;;9.80;4.92;;;;;;;21.05;53.16;101431.95;1678038;84;20981;-84
2021/09/04 08:28:09;;;;;;;7.80;3.85;;;;;;;21.14;53.01;101436.02;1673604;85;21823;-82
2021/09/04 08:30:37;;;;;;;9.08;6.50;;;;;;;21.25;52.88;101426.05;1670654;86;21001;-83
2021/09/04 08:33:04;;;;;;;5.08;4.00;;;;;;;21.35;52.02;101433.40;1670586;86;21077;-86
2021/09/04 08:35:30;;;;;;;10.95;4.58;;;;;;;21.40;51.96;101434.27;1670657;86;21113;-80
2021/09/04 08:37:57;;;;;;;30.15;7.42;;;;;;;21.43;52.35;101429.52;1670610;85;21010;-81
2021/09/04 08:40:23;;;;;;;27.32;6.92;;;;;;;21.50;51.38;101435.02;1670504;86;21783;-80
2021/09/04 08:42:51;;;;;;;7.45;4.37;;;;;;;21.55;51.54;101427.45;1670629;85;20930;-81
2021/09/04 08:45:18;;;;;;;5.33;3.67;;;;;;;21.64;49.66;101431.33;1629237;86;21591;-84
2021/09/04 08:47:45;;;;;;;9.53;3.75;;;;;;;21.75;48.75;101438.67;1670829;86;20948;-80
2021/09/04 08:50:12;;;;;;;9.13;4.20;;;;;;;21.78;48.27;101433.08;1670703;85;20934;-79
2021/09/04 08:52:39;;;;;;;10.55;5.08;;;;;;;21.82;48.96;101426.50;1670557;86;21272;-82
2021/09/04 08:55:06;;;;;;;10.28;7.90;;;;;;;21.83;48.25;101425.02;1670712;86;21022;-81
2021/09/04 08:57:34;;;;;;;7.85;5.17;;;;;;;21.89;46.76;101422.30;1670745;85;20915;-87
2021/09/04 09:00:01;;;;;;;6.85;4.12;;;;;;;21.93;45.67;101422.30;1670755;86;20951;-85
2021/09/04 09:02:29;;;;;;;4.62;3.40;;;;;;;21.95;46.05;101419.02;1670491;85;21021;-85
2021/09/04 09:05:07;;;;;;;7.37;5.33;;;;;;;21.97;44.13;101420.52;1670516;86;21543;-84
2021/09/04 09:07:44;;;;;;;6.55;5.17;;;;;;;21.98;44.33;101417.39;1670717;86;21261;-87
2021/09/04 09:10:29;;;;;;;6.70;4.92;;;;;;;22.10;44.10;101424.05;1670453;85;21003;-87
2021/09/04 09:12:57;;;;;;;4.67;2.95;;;;;;;22.20;43.18;101427.91;1670980;85;21615;-85
2021/09/04 09:15:34;;;;;;;4.33;3.15;;;;;;;22.33;43.32;101425.66;1670322;86;21060;-83
2021/09/04 09:18:07;;;;;;;3.60;3.10;;;;;;;22.37;42.88;101423.84;1670665;86;21815;-86
2021/09/04 09:20:34;;;;;;;;;;;;;;;22.45;42.88;101417.28;1673339;85;20922;-82
2021/09/04 09:23:12;;;;;;;5.55;3.20;;;;;;;22.58;41.38;101418.15;1670665;85;20106;-82
2021/09/04 09:25:40;;;;;;;5.30;3.37;;;;;;;22.69;42.40;101411.25;1670086;84;21544;-86
2021/09/04 09:28:22;;;;;;;5.20;3.00;;;;;;;22.85;42.66;101415.75;1670421;85;21019;-87
2021/09/04 09:30:56;;;;;;;4.12;2.90;;;;;;;22.96;40.98;101423.40;1670780;86;21820;-88
2021/09/04 09:33:24;;;;;;;3.65;2.52;;;;;;;22.96;40.23;101416.78;1670490;86;20984;-86
2021/09/04 09:35:53;;;;;;;4.50;3.08;;;;;;;23.01;40.18;101410.49;1670639;85;21465;-82
2021/09/04 09:38:23;;;;;;;4.85;3.30;;;;;;;23.07;38.71;101411.19;1670277;86;21577;-88
2021/09/04 09:40:50;;;;;;;6.12;3.17;;;;;;;23.12;39.78;101399.59;1670758;86;21072;-86
2021/09/04 09:43:36;;;;;;;12.75;4.30;;;;;;;23.14;39.94;101396.28;1670378;86;21595;-87
2021/09/04 09:46:04;;;;;;;2.60;2.40;;;;;;;23.18;39.62;101393.64;1670171;85;20907;-84
2021/09/04 09:48:32;;;;;;;4.67;2.72;;;;;;;23.70;36.20;101394.14;1670636;85;21497;-82
2021/09/04 09:51:02;;;;;;;9.95;3.45;;;;;;;24.83;34.11;101392.87;1670542;86;21521;-83
2021/09/04 09:53:30;;;;;;;5.08;3.00;;;;;;;25.80;33.34;101386.27;1670537;86;21010;-82
2021/09/04 09:55:59;;;;;;;4.25;3.05;;;;;;;26.86;31.59;101387.13;1670754;86;21866;-82
2021/09/04 09:58:28;;;;;;;4.00;3.60;;;;;;;27.75;31.51;101377.95;1670407;86;20887;-87
2021/09/04 10:00:56;;;;;;;4.55;2.80;;;;;;;28.63;29.55;101385.63;1670647;85;20962;-84
2021/09/04 10:03:26;;;;;;;3.65;2.52;;;;;;;29.16;29.20;101379.39;1670574;86;21045;-83
2021/09/04 10:05:53;;;;;;;9.43;3.25;;;;;;;29.76;27.61;101375.66;1670656;86;21029;-86
2021/09/04 10:08:20;;;;;;;5.08;3.12;;;;;;;30.31;27.54;101376.91;1671302;86;21021;-84
2021/09/04 10:10:49;;;;;;;3.25;2.60;;;;;;;30.96;25.61;101378.97;1670925;85;20994;-86
2021/09/04 10:13:15;;;;;;;6.80;3.15;;;;;;;31.15;25.29;101378.50;1670744;86;20911;-82
2021/09/04 10:15:48;;;;;;;5.05;2.52;;;;;;;31.37;25.98;101375.73;1670822;85;20960;-85
2021/09/04 10:18:15;;;;;;;3.83;3.22;;;;;;;31.94;24.75;101368.66;1670596;86;20966;-83
2021/09/04 10:20:45;;;;;;;8.68;4.15;;;;;;;31.89;23.87;101372.55;1670787;86;20898;-82
2021/09/04 10:23:32;;;;;;;11.22;3.37;;;;;;;31.13;24.70;101376.06;1670574;86;20919;-89
2021/09/04 10:26:31;;;;;;;4.50;2.92;;;;;;;30.57;26.62;101380.55;1668998;86;20998;-81
2021/09/04 10:29:13;;;;;;;10.13;3.72;;;;;;;29.90;27.10;101372.44;1678900;83;21522;-81
2021/09/04 10:32:00;;;;;;;12.20;4.33;;;;;;;28.79;28.77;101363.92;1685197;84;21000;-82
2021/09/04 10:34:36;;;;;;;10.32;3.55;;;;;;;27.89;29.21;101363.36;1684495;85;21256;-82
2021/09/04 10:37:18;;;;;;;6.87;3.27;;;;;;;27.36;30.15;101365.63;1684328;85;20996;-88
2021/09/04 10:40:07;;;;;;;6.37;3.50;;;;;;;26.97;31.25;101359.46;1684104;85;21015;-79
2021/09/04 10:42:43;;;;;;;3.87;3.12;;;;;;;26.72;32.12;101362.98;1684060;85;21531;-80
2021/09/04 10:45:16;;;;;;;4.55;2.98;;;;;;;26.53;32.22;101370.25;1684257;85;21003;-81
2021/09/04 10:47:57;;;;;;;5.65;3.30;;;;;;;26.55;32.70;101372.74;1666388;85;21181;-87
2021/09/04 10:50:29;;;;;;;11.65;4.50;;;;;;;26.57;33.05;101376.03;1667867;85;21025;-87
2021/09/04 10:53:07;;;;;;;11.12;3.70;;;;;;;26.31;33.88;101369.89;1665300;85;21447;-88
2021/09/04 10:55:41;;;;;;;6.00;3.72;;;;;;;26.27;33.25;101368.11;1683453;84;20916;-88
2021/09/04 10:58:20;;;;;;;5.30;3.35;;;;;;;26.30;33.55;101368.23;1684072;84;21079;-83
2021/09/04 11:00:49;;;;;;;5.90;3.50;;;;;;;26.28;33.95;101365.77;1683789;84;21799;-83
2021/09/04 11:03:20;;;;;;;12.13;4.40;;;;;;;26.15;34.48;101364.25;1684009;84;21471;-86
2021/09/04 11:05:56;;;;;;;3.98;3.40;;;;;;;25.95;34.09;101366.31;1684320;85;21003;-80
2021/09/04 11:08:33;;;;;;;4.45;3.65;;;;;;;25.67;33.98;101361.64;1683988;84;21538;-81
2021/09/04 11:11:37;;;;;;;4.72;2.85;;;;;;;25.40;35.01;101353.44;1684370;84;21059;-79
2021/09/04 11:14:23;;;;;;;5.75;3.12;;;;;;;25.37;34.05;101352.47;1683913;85;21173;-88
2021/09/04 11:16:58;;;;;;;6.15;3.37;;;;;;;25.42;35.09;101352.23;1684170;85;20944;-81
2021/09/04 11:19:32;;;;;;;5.42;3.15;;;;;;;25.46;35.14;101340.25;1683968;85;21024;-88
2021/09/04 11:22:14;;;;;;;5.33;3.20;;;;;;;25.57;35.72;101349.62;1684114;85;20995;-79
2021/09/04 11:24:46;;;;;;;5.15;3.10;;;;;;;25.71;34.45;101342.17;1684251;85;21003;-83
2021/09/04 11:27:21;;;;;;;6.05;3.40;;;;;;;25.93;34.89;101341.75;1684012;84;20936;-80
2021/09/04 11:29:51;;;;;;;7.67;3.52;;;;;;;25.98;34.41;101342.83;1684269;85;21554;-83